createdAt,value
2019-01-14T00:00:26.540Z,82.70
2019-01-14T00:02:57.142Z,83.70
2019-01-14T00:05:26.129Z,84.90
2019-01-14T00:07:55.049Z,85.70
2019-01-14T00:10:24.106Z,85.00
2019-01-14T00:12:53.041Z,84.80
2019-01-14T00:15:23.283Z,85.90
2019-01-14T00:17:52.335Z,86.00
2019-01-14T00:20:21.465Z,85.80
2019-01-14T00:22:50.637Z,86.20
2019-01-14T00:25:19.549Z,87.30
2019-01-14T00:27:48.475Z,89.00
2019-01-14T00:30:18.511Z,87.20
2019-01-14T00:32:47.466Z,87.00
2019-01-14T00:35:16.417Z,88.40
2019-01-14T00:37:45.413Z,87.80
2019-01-14T00:40:15.842Z,88.20
2019-01-14T00:42:46.561Z,89.70
2019-01-14T00:45:15.909Z,89.60
2019-01-14T00:47:44.868Z,90.10
2019-01-14T00:50:15.398Z,90.50
2019-01-14T00:52:44.542Z,91.20
2019-01-14T00:55:13.846Z,91.60
2019-01-14T00:57:44.117Z,92.20
2019-01-14T01:00:16.324Z,92.80
2019-01-14T01:02:45.294Z,93.10
2019-01-14T01:05:14.336Z,93.50
2019-01-14T01:07:44.830Z,93.40
2019-01-14T01:10:16.193Z,93.40
2019-01-14T01:12:46.489Z,92.70
2019-01-14T01:15:16.897Z,92.10
2019-01-14T01:17:48.570Z,91.40
2019-01-14T01:20:19.845Z,91.20
2019-01-14T01:22:49.132Z,90.60
2019-01-14T01:25:18.461Z,90.50
2019-01-14T01:27:49.184Z,90.50
2019-01-14T01:30:19.178Z,90.50
2019-01-14T01:32:49.359Z,90.50
2019-01-14T01:35:18.406Z,90.50
2019-01-14T01:37:49.029Z,90.70
2019-01-14T01:40:19.556Z,90.80
2019-01-14T01:42:48.479Z,90.70
2019-01-14T01:45:18.120Z,90.50
2019-01-14T01:47:47.227Z,90.70
2019-01-14T01:50:17.355Z,91.20
2019-01-14T01:52:46.485Z,91.00
2019-01-14T01:55:17.141Z,91.00
2019-01-14T01:57:46.188Z,91.10
2019-01-14T02:00:17.483Z,91.30
2019-01-14T02:02:46.796Z,91.20
2019-01-14T02:05:16.528Z,91.40
2019-01-14T02:07:46.978Z,91.50
2019-01-14T02:10:18.371Z,91.50
2019-01-14T02:12:47.502Z,91.70
2019-01-14T02:15:19.292Z,92.00
2019-01-14T02:17:49.891Z,92.60
2019-01-14T02:20:21.471Z,93.10
2019-01-14T02:22:50.803Z,92.90
2019-01-14T02:25:20.081Z,93.20
2019-01-14T02:27:50.476Z,93.30
2019-01-14T02:30:21.702Z,93.40
2019-01-14T02:32:51.599Z,93.40
2019-01-14T02:35:21.511Z,93.40
2019-01-14T02:37:51.133Z,93.00
2019-01-14T02:40:21.298Z,92.80
2019-01-14T02:42:51.821Z,92.50
2019-01-14T02:45:20.784Z,92.50
2019-01-14T02:47:49.660Z,92.70
2019-01-14T02:50:18.558Z,92.70
2019-01-14T02:52:47.388Z,93.10
2019-01-14T02:55:16.388Z,93.20
2019-01-14T02:57:47.119Z,92.90
2019-01-14T03:00:19.162Z,92.90
2019-01-14T03:02:48.410Z,93.00
2019-01-14T03:05:17.691Z,93.10
2019-01-14T03:07:47.459Z,93.30
2019-01-14T03:10:16.673Z,93.40
2019-01-14T03:12:46.953Z,93.60
2019-01-14T03:15:18.920Z,93.60
2019-01-14T03:17:49.084Z,93.50
2019-01-14T03:20:18.840Z,93.50
2019-01-14T03:22:48.415Z,93.90
2019-01-14T03:25:18.372Z,93.80
2019-01-14T03:27:47.397Z,93.60
2019-01-14T03:30:19.768Z,93.80
2019-01-14T03:32:49.078Z,94.10
2019-01-14T03:35:18.683Z,94.10
2019-01-14T03:37:49.086Z,94.30
2019-01-14T03:40:18.973Z,94.40
2019-01-14T03:42:48.875Z,94.60
2019-01-14T03:45:18.759Z,94.90
2019-01-14T03:47:48.006Z,94.60
2019-01-14T03:50:20.241Z,94.60
2019-01-14T03:52:50.445Z,94.50
2019-01-14T03:55:20.280Z,94.20
2019-01-14T03:57:51.697Z,94.20
2019-01-14T04:00:21.048Z,93.30
2019-01-14T04:02:50.247Z,92.30
2019-01-14T04:05:20.634Z,92.20
2019-01-14T04:07:49.808Z,92.30
2019-01-14T04:10:20.362Z,92.40
2019-01-14T04:12:49.742Z,92.90
2019-01-14T04:15:19.861Z,93.10
2019-01-14T04:17:48.953Z,93.30
2019-01-14T04:20:19.242Z,93.40
2019-01-14T04:22:49.879Z,93.50
2019-01-14T04:25:18.921Z,93.60
2019-01-14T04:27:47.948Z,93.90
2019-01-14T04:30:19.858Z,93.90
2019-01-14T04:32:49.267Z,93.90
2019-01-14T04:35:19.480Z,92.80
2019-01-14T04:37:48.636Z,92.30
2019-01-14T04:40:19.242Z,91.30
2019-01-14T04:42:48.372Z,90.50
2019-01-14T04:45:20.223Z,89.00
2019-01-14T04:47:49.927Z,88.20
2019-01-14T04:50:21.280Z,87.20
2019-01-14T04:52:52.182Z,87.40
2019-01-14T04:55:22.466Z,86.70
2019-01-14T04:57:54.397Z,82.60
2019-01-14T05:00:26.546Z,81.70
2019-01-14T05:02:56.904Z,80.80
2019-01-14T05:05:27.533Z,80.90
2019-01-14T05:07:57.917Z,80.70
2019-01-14T05:10:28.625Z,81.50
2019-01-14T05:12:59.728Z,81.50
2019-01-14T05:15:29.066Z,81.80
2019-01-14T05:17:57.957Z,82.30
2019-01-14T05:20:27.871Z,81.50
2019-01-14T05:22:56.830Z,81.50
2019-01-14T05:25:27.084Z,81.40
2019-01-14T05:27:57.379Z,81.40
2019-01-14T05:30:26.734Z,81.30
2019-01-14T05:32:55.626Z,81.40
2019-01-14T05:35:25.650Z,80.80
2019-01-14T05:37:54.498Z,80.40
2019-01-14T05:40:26.695Z,80.20
2019-01-14T05:42:56.219Z,80.10
2019-01-14T05:45:25.567Z,78.60
2019-01-14T05:47:54.433Z,76.20
2019-01-14T05:50:23.534Z,76.80
2019-01-14T05:52:52.371Z,76.20
2019-01-14T05:55:21.382Z,76.80
2019-01-14T05:57:50.430Z,77.00
2019-01-14T06:00:22.150Z,77.30
2019-01-14T06:02:51.303Z,76.80
2019-01-14T06:05:20.304Z,77.00
2019-01-14T06:07:49.472Z,78.20
2019-01-14T06:10:18.421Z,80.10
2019-01-14T06:12:49.204Z,81.30
2019-01-14T06:15:19.051Z,81.90
2019-01-14T06:17:48.001Z,83.00
2019-01-14T06:20:20.724Z,84.30
2019-01-14T06:22:49.779Z,84.60
2019-01-14T06:25:19.185Z,85.20
2019-01-14T06:27:48.264Z,84.10
2019-01-14T06:30:20.269Z,82.70
2019-01-14T06:32:49.143Z,82.20
2019-01-14T06:35:18.595Z,82.50
2019-01-14T06:37:52.340Z,81.70
2019-01-14T06:40:20.277Z,81.90
2019-01-14T06:42:52.239Z,80.20
2019-01-14T06:45:21.327Z,77.90
2019-01-14T06:47:52.627Z,68.80
2019-01-14T06:50:25.923Z,66.70
2019-01-14T06:52:54.867Z,60.60
2019-01-14T06:55:23.751Z,62.40
2019-01-14T06:57:52.810Z,62.80
2019-01-14T07:00:23.936Z,64.80
2019-01-14T07:02:54.542Z,67.60
2019-01-14T07:05:27.550Z,66.10
2019-01-14T07:07:59.724Z,66.80
2019-01-14T07:10:28.804Z,67.00
2019-01-14T07:12:57.807Z,67.90
2019-01-14T07:15:26.856Z,69.50
2019-01-14T07:17:55.795Z,69.50
2019-01-14T07:20:24.867Z,69.10
2019-01-14T07:22:53.854Z,69.20
2019-01-14T07:25:22.807Z,69.10
2019-01-14T07:27:52.517Z,70.10
2019-01-14T07:30:23.227Z,69.50
2019-01-14T07:32:54.298Z,70.00
2019-01-14T07:35:23.390Z,69.20
2019-01-14T07:37:56.070Z,69.30
2019-01-14T07:40:26.507Z,69.40
2019-01-14T07:42:55.903Z,69.70
2019-01-14T07:45:27.379Z,70.20
2019-01-14T07:47:57.859Z,70.00
2019-01-14T07:50:28.680Z,70.70
2019-01-14T07:53:00.958Z,71.30
2019-01-14T07:55:30.685Z,70.70
2019-01-14T07:58:01.945Z,70.00
2019-01-14T08:00:33.386Z,71.90
2019-01-14T08:03:04.322Z,69.60
2019-01-14T08:05:34.652Z,70.50
2019-01-14T08:08:13.981Z,72.30
2019-01-14T08:10:41.874Z,71.60
2019-01-14T08:13:10.834Z,71.60
2019-01-14T08:15:44.908Z,71.60
2019-01-14T08:18:14.008Z,71.60
2019-01-14T08:20:46.408Z,71.40
2019-01-14T08:23:15.539Z,70.90
2019-01-14T08:25:45.689Z,69.20
2019-01-14T08:28:14.767Z,67.30
2019-01-14T08:30:44.277Z,69.40
2019-01-14T08:33:13.294Z,71.60
2019-01-14T08:35:42.236Z,73.80
2019-01-14T08:38:12.744Z,75.90
2019-01-14T08:40:41.661Z,71.30
2019-01-14T08:43:13.307Z,74.40
2019-01-14T08:45:43.375Z,76.90
2019-01-14T08:48:14.047Z,80.00
2019-01-14T08:50:43.020Z,83.30
2019-01-14T08:53:12.850Z,83.70
2019-01-14T08:55:44.572Z,83.30
2019-01-14T08:58:13.776Z,83.70
2019-01-14T09:00:45.867Z,83.10
2019-01-14T09:03:15.219Z,83.20
2019-01-14T09:05:44.556Z,84.10
2019-01-14T09:08:15.026Z,82.90
2019-01-14T09:10:46.409Z,78.20
2019-01-14T09:13:16.344Z,67.50
2019-01-14T09:15:48.714Z,61.60
2019-01-14T09:18:18.429Z,56.70
2019-01-14T09:20:49.455Z,61.90
2019-01-14T09:23:18.660Z,64.90
2019-01-14T09:25:53.916Z,64.40
2019-01-14T09:28:23.174Z,61.00
2019-01-14T09:30:54.213Z,59.90
2019-01-14T09:33:26.825Z,58.10
2019-01-14T09:35:58.053Z,56.10
2019-01-14T09:38:35.761Z,58.10
2019-01-14T09:41:04.079Z,56.50
2019-01-14T09:43:35.726Z,59.80
2019-01-14T09:46:10.647Z,60.80
2019-01-14T09:48:38.330Z,58.50
2019-01-14T09:51:10.661Z,52.70
2019-01-14T09:53:40.222Z,52.00
2019-01-14T09:56:11.736Z,54.50
2019-01-14T09:58:42.266Z,52.80
2019-01-14T10:01:12.519Z,55.90
2019-01-14T10:03:43.634Z,52.80
2019-01-14T10:06:12.826Z,55.50
2019-01-14T10:08:43.206Z,55.50
2019-01-14T10:11:13.086Z,51.20
2019-01-14T10:13:46.655Z,49.50
2019-01-14T10:16:17.105Z,48.30
2019-01-14T10:18:47.427Z,47.50
2019-01-14T10:21:17.786Z,48.10
2019-01-14T10:23:47.999Z,47.10
2019-01-14T10:26:17.079Z,46.30
2019-01-14T10:28:47.325Z,47.50
2019-01-14T10:31:19.980Z,43.50
2019-01-14T10:33:48.480Z,46.50
2019-01-14T10:36:17.491Z,44.50
2019-01-14T10:38:50.560Z,45.30
2019-01-14T10:41:18.505Z,48.20
2019-01-14T10:43:50.152Z,45.20
2019-01-14T10:46:19.082Z,44.80
2019-01-14T10:48:49.399Z,45.20
2019-01-14T10:51:19.295Z,43.00
2019-01-14T10:53:48.731Z,44.50
2019-01-14T10:56:17.707Z,43.70
2019-01-14T10:58:46.549Z,44.20
2019-01-14T11:01:15.678Z,43.00
2019-01-14T11:03:44.727Z,43.00
2019-01-14T11:06:14.179Z,42.70
2019-01-14T11:08:43.456Z,41.50
2019-01-14T11:11:12.447Z,43.40
2019-01-14T11:13:42.825Z,41.10
2019-01-14T11:16:11.958Z,42.20
2019-01-14T11:18:45.324Z,39.70
2019-01-14T11:21:14.507Z,41.90
2019-01-14T11:23:44.889Z,43.00
2019-01-14T11:26:15.376Z,43.00
2019-01-14T11:28:45.014Z,43.60
2019-01-14T11:31:14.792Z,43.70
2019-01-14T11:33:45.090Z,43.00
2019-01-14T11:36:14.198Z,43.00
2019-01-14T11:38:49.968Z,44.20
2019-01-14T11:41:21.989Z,44.90
2019-01-14T11:43:52.785Z,45.60
2019-01-14T11:46:24.511Z,49.40
2019-01-14T11:48:53.480Z,55.60
2019-01-14T11:51:31.584Z,62.10
2019-01-14T11:54:00.514Z,63.80
2019-01-14T11:56:29.936Z,65.90
2019-01-14T11:59:02.943Z,68.60
2019-01-14T12:01:42.322Z,69.10
2019-01-14T12:04:11.352Z,68.40
2019-01-14T12:06:41.518Z,67.60
2019-01-14T12:09:13.263Z,68.30
2019-01-14T12:11:43.428Z,66.00
2019-01-14T12:14:14.526Z,64.40
2019-01-14T12:16:45.079Z,58.30
2019-01-14T12:19:16.645Z,61.50
2019-01-14T12:21:48.438Z,53.00
2019-01-14T12:24:17.446Z,51.90
2019-01-14T12:26:46.445Z,52.20
2019-01-14T12:29:17.260Z,52.10
2019-01-14T12:31:47.097Z,49.40
2019-01-14T12:34:19.287Z,48.90
2019-01-14T12:36:48.891Z,47.10
2019-01-14T12:39:19.617Z,48.20
2019-01-14T12:41:51.196Z,46.30
2019-01-14T12:44:21.074Z,44.70
2019-01-14T12:46:50.263Z,44.10
2019-01-14T12:49:19.263Z,43.00
2019-01-14T12:51:48.899Z,41.60
2019-01-14T12:54:18.610Z,43.00
2019-01-14T12:56:51.307Z,42.10
2019-01-14T12:59:22.251Z,39.70
2019-01-14T13:01:54.933Z,36.90
2019-01-14T13:04:28.164Z,39.00
2019-01-14T13:06:57.415Z,40.50
2019-01-14T13:09:27.095Z,37.80
2019-01-14T13:11:56.565Z,38.20
2019-01-14T13:14:27.112Z,39.80
2019-01-14T13:16:57.363Z,40.90
2019-01-14T13:19:26.332Z,42.80
2019-01-14T13:21:59.467Z,41.90
2019-01-14T13:24:32.629Z,42.90
2019-01-14T13:27:05.957Z,42.90
2019-01-14T13:29:37.957Z,40.40
2019-01-14T13:32:07.814Z,40.90
2019-01-14T13:34:37.143Z,40.70
2019-01-14T13:37:07.888Z,42.10
2019-01-14T13:39:41.227Z,42.00
2019-01-14T13:42:10.097Z,42.20
2019-01-14T13:44:38.978Z,41.90
2019-01-14T13:47:09.238Z,44.70
2019-01-14T13:49:38.303Z,57.50
2019-01-14T13:52:07.239Z,73.60
2019-01-14T13:54:36.168Z,80.80
2019-01-14T13:57:09.847Z,82.50
2019-01-14T13:59:38.833Z,77.30
2019-01-14T14:02:07.803Z,75.40
2019-01-14T14:04:36.836Z,74.80
2019-01-14T14:07:08.344Z,73.80
2019-01-14T14:09:41.109Z,73.50
2019-01-14T14:12:09.207Z,74.10
2019-01-14T14:14:38.416Z,75.70
2019-01-14T14:17:09.901Z,77.00
2019-01-14T14:19:40.152Z,78.00
2019-01-14T14:22:11.830Z,78.40
2019-01-14T14:24:41.276Z,77.50
2019-01-14T14:27:10.225Z,76.40
2019-01-14T14:29:39.186Z,75.70
2019-01-14T14:32:08.519Z,72.10
2019-01-14T14:34:38.841Z,71.70
2019-01-14T14:37:09.059Z,70.90
2019-01-14T14:39:48.477Z,69.40
2019-01-14T14:42:17.344Z,69.40
2019-01-14T14:44:46.290Z,66.70
2019-01-14T14:50:22.476Z,63.60
2019-01-14T14:52:51.580Z,64.50
2019-01-14T14:55:20.579Z,59.90
2019-01-14T14:57:49.637Z,59.50
2019-01-14T15:00:21.343Z,58.80
2019-01-14T15:02:50.220Z,58.80
2019-01-14T15:05:19.544Z,57.90
2019-01-14T15:07:51.294Z,59.40
2019-01-14T15:10:26.303Z,59.40
2019-01-14T15:12:55.278Z,58.80
2019-01-14T15:15:24.744Z,59.90
2019-01-14T15:17:53.818Z,59.90
2019-01-14T15:20:23.625Z,61.00
2019-01-14T15:22:52.563Z,61.50
2019-01-14T15:25:22.206Z,61.00
2019-01-14T15:27:51.299Z,61.50
2019-01-14T15:30:23.054Z,60.50
2019-01-14T15:32:53.568Z,60.60
2019-01-14T15:35:22.643Z,61.40
2019-01-14T15:37:51.836Z,62.00
2019-01-14T15:40:22.201Z,61.60
2019-01-14T15:42:51.268Z,62.30
2019-01-14T15:45:22.540Z,63.30
2019-01-14T15:47:52.289Z,62.70
2019-01-14T15:50:23.295Z,61.40
2019-01-14T15:52:52.425Z,63.60
2019-01-14T15:55:23.871Z,63.40
2019-01-14T15:57:52.971Z,61.90
2019-01-14T16:00:22.199Z,62.40
2019-01-14T16:02:51.628Z,62.30
2019-01-14T16:05:21.005Z,62.10
2019-01-14T16:07:50.938Z,60.10
2019-01-14T16:10:22.111Z,61.30
2019-01-14T16:12:52.475Z,60.10
2019-01-14T16:15:21.562Z,58.90
2019-01-14T16:17:50.683Z,57.80
2019-01-14T16:20:26.618Z,57.50
2019-01-14T16:22:52.943Z,58.60
2019-01-14T16:25:22.079Z,57.70
2019-01-14T16:27:53.118Z,59.40
2019-01-14T16:30:26.198Z,59.10
2019-01-14T16:32:55.544Z,60.10
2019-01-14T16:35:25.870Z,60.40
2019-01-14T16:37:54.844Z,61.70
2019-01-14T16:40:25.433Z,61.00
2019-01-14T16:42:54.385Z,63.20
2019-01-14T16:45:24.462Z,63.00
2019-01-14T16:47:53.512Z,63.50
2019-01-14T16:50:22.615Z,64.20
2019-01-14T16:52:51.585Z,65.60
2019-01-14T16:55:23.472Z,65.80
2019-01-14T16:57:53.948Z,66.00
2019-01-14T17:00:25.715Z,67.60
2019-01-14T17:02:56.068Z,68.80
2019-01-14T17:05:26.503Z,69.80
2019-01-14T17:07:58.615Z,69.30
2019-01-14T17:10:29.077Z,69.60
2019-01-14T17:12:58.175Z,70.50
2019-01-14T17:15:27.303Z,70.40
2019-01-14T17:17:56.219Z,69.90
2019-01-14T17:20:27.120Z,69.70
2019-01-14T17:22:56.098Z,69.10
2019-01-14T17:25:25.125Z,68.40
2019-01-14T17:27:56.421Z,67.80
2019-01-14T17:30:25.825Z,67.20
2019-01-14T17:32:54.906Z,67.10
2019-01-14T17:35:25.362Z,67.00
2019-01-14T17:37:56.967Z,67.10
2019-01-14T17:40:32.292Z,66.80
2019-01-14T17:42:57.804Z,66.70
2019-01-14T17:45:27.139Z,66.90
2019-01-14T17:47:57.127Z,67.20
2019-01-14T17:50:27.603Z,66.80
2019-01-14T17:52:56.735Z,66.90
2019-01-14T17:55:26.038Z,66.10
2019-01-14T17:57:55.022Z,65.60
2019-01-14T18:00:25.721Z,66.10
2019-01-14T18:02:54.744Z,67.00
2019-01-14T18:05:24.656Z,65.50
2019-01-14T18:07:53.668Z,65.00
2019-01-14T18:10:23.426Z,65.20
2019-01-14T18:12:54.503Z,65.00
2019-01-14T18:15:23.581Z,65.30
2019-01-14T18:17:53.856Z,65.00
2019-01-14T18:20:25.836Z,65.30
2019-01-14T18:22:54.795Z,66.00
2019-01-14T18:25:23.840Z,67.40
2019-01-14T18:27:54.578Z,66.50
2019-01-14T18:30:24.487Z,66.00
2019-01-14T18:32:53.578Z,66.50
2019-01-14T18:35:22.522Z,64.80
2019-01-14T18:37:51.603Z,64.60
2019-01-14T18:40:21.611Z,65.50
2019-01-14T18:42:51.573Z,65.40
2019-01-14T18:45:21.751Z,66.00
2019-01-14T18:47:51.087Z,65.40
2019-01-14T18:50:21.482Z,64.40
2019-01-14T18:52:50.869Z,65.20
2019-01-14T18:55:21.372Z,66.00
2019-01-14T18:57:50.419Z,65.90
2019-01-14T19:00:21.067Z,66.00
2019-01-14T19:02:56.905Z,66.10
2019-01-14T19:05:26.003Z,66.00
2019-01-14T19:07:54.936Z,66.90
2019-01-14T19:10:24.298Z,67.20
2019-01-14T19:12:53.347Z,67.30
2019-01-14T19:15:24.741Z,67.50
2019-01-14T19:17:54.001Z,67.00
2019-01-14T19:20:25.976Z,66.80
2019-01-14T19:22:56.096Z,67.10
2019-01-14T19:25:26.294Z,67.50
2019-01-14T19:27:56.489Z,67.90
2019-01-14T19:33:15.629Z,68.10
2019-01-14T19:35:45.104Z,68.30
2019-01-14T19:38:15.785Z,69.40
2019-01-14T19:40:45.821Z,70.10
2019-01-14T19:43:18.023Z,70.50
2019-01-14T19:45:49.918Z,70.50
2019-01-14T19:48:18.582Z,70.70
2019-01-14T19:50:48.674Z,71.50
2019-01-14T19:53:25.196Z,71.70
2019-01-14T19:55:57.349Z,71.60
2019-01-14T19:58:31.210Z,71.80
2019-01-14T20:01:01.292Z,72.70
2019-01-14T20:03:31.679Z,71.90
2019-01-14T20:06:05.265Z,72.30
2019-01-14T20:08:36.891Z,72.00
2019-01-14T20:11:09.382Z,71.70
2019-01-14T20:13:43.716Z,72.20
2019-01-14T20:21:32.071Z,70.60
2019-01-14T20:24:02.536Z,70.60
2019-01-14T20:26:37.318Z,69.00
2019-01-14T20:29:07.238Z,69.10
2019-01-14T20:34:34.385Z,69.70
2019-01-14T20:37:05.083Z,68.30
2019-01-14T20:39:34.577Z,67.60
2019-01-14T20:42:03.766Z,68.10
2019-01-14T20:44:32.776Z,67.00
2019-01-14T20:47:01.728Z,66.90
2019-01-14T20:49:30.654Z,67.50
2019-01-14T20:51:59.805Z,67.80
2019-01-14T20:54:29.091Z,66.80
2019-01-14T20:56:58.108Z,67.20
2019-01-14T20:59:33.427Z,67.40
2019-01-14T21:01:58.651Z,68.10
2019-01-14T21:04:27.829Z,68.50
2019-01-14T21:06:56.865Z,68.10
2019-01-14T21:09:25.825Z,68.50
2019-01-14T21:11:54.780Z,69.10
2019-01-14T21:14:23.768Z,69.50
2019-01-14T21:16:54.841Z,69.10
2019-01-14T21:19:23.984Z,69.20
2019-01-14T21:21:52.901Z,69.40
2019-01-14T21:24:21.981Z,70.20
2019-01-14T21:26:53.725Z,69.60
2019-01-14T21:29:26.063Z,70.50
2019-01-14T21:31:53.730Z,70.60
2019-01-14T21:34:22.654Z,70.60
2019-01-14T21:36:51.561Z,70.60
2019-01-14T21:39:21.847Z,70.70
2019-01-14T21:41:50.736Z,70.80
2019-01-14T21:44:20.944Z,70.90
2019-01-14T21:46:49.931Z,70.50
2019-01-14T21:49:18.764Z,71.20
2019-01-14T21:51:47.725Z,70.60
2019-01-14T21:54:16.627Z,70.60
2019-01-14T21:56:45.532Z,70.30
2019-01-14T21:59:14.470Z,71.00
2019-01-14T22:01:43.450Z,71.90
2019-01-14T22:04:12.504Z,72.20
2019-01-14T22:06:41.448Z,72.20
2019-01-14T22:09:11.995Z,72.50
2019-01-14T22:11:40.927Z,72.10
2019-01-14T22:14:10.741Z,72.20
2019-01-14T22:16:39.773Z,72.00
2019-01-14T22:19:09.539Z,71.50
2019-01-14T22:21:38.478Z,72.20
2019-01-14T22:24:08.436Z,72.50
2019-01-14T22:26:37.245Z,71.80
2019-01-14T22:29:06.234Z,71.20
2019-01-14T22:31:37.252Z,71.40
2019-01-14T22:34:06.204Z,70.30
2019-01-14T22:36:35.273Z,70.30
2019-01-14T22:39:07.102Z,70.40
2019-01-14T22:41:36.838Z,70.50
2019-01-14T22:44:07.028Z,70.40
2019-01-14T22:46:35.956Z,71.10
2019-01-14T22:49:05.393Z,71.40
2019-01-14T22:51:34.325Z,71.80
2019-01-14T22:54:03.605Z,73.00
2019-01-14T22:56:32.515Z,73.10
2019-01-14T22:59:01.738Z,72.60
2019-01-14T23:01:32.608Z,72.60
2019-01-14T23:04:01.633Z,72.50
2019-01-14T23:06:30.665Z,71.90
2019-01-14T23:08:59.662Z,72.30
2019-01-14T23:11:29.564Z,72.10
2019-01-14T23:13:59.448Z,72.30
2019-01-14T23:16:28.460Z,72.20
2019-01-14T23:18:57.468Z,73.00
2019-01-14T23:21:27.737Z,73.70
2019-01-14T23:23:56.638Z,74.30
2019-01-14T23:26:25.548Z,75.00
2019-01-14T23:28:54.346Z,75.80
2019-01-14T23:31:24.108Z,76.90
2019-01-14T23:33:53.152Z,77.40
2019-01-14T23:36:22.045Z,77.70
2019-01-14T23:38:50.879Z,78.40
2019-01-14T23:41:19.950Z,79.00
2019-01-14T23:43:48.820Z,79.10
2019-01-14T23:46:17.609Z,79.50
2019-01-14T23:48:46.643Z,80.10
2019-01-14T23:51:16.922Z,80.90
2019-01-14T23:53:45.866Z,81.60
2019-01-14T23:56:14.818Z,82.10
2019-01-14T23:58:43.751Z,82.80
